Time;durP1;ratioP1;P1;durP2;ratioP2;P2;SDS_P1;SDS_P2;PMS_P1;PMS_P2;Temp;Humidity;BMP_temperature;BMP_pressure;BME280_temperature;BME280_humidity;BME280_pressure;Samples;Min_cycle;Max_cycle;Signal;HPM_P1;HPM_P2
2022/08/22 00:00:16;;;;;;;;;;;;;;;28.80;41.71;94117.50;4921277;28;8582;-86
2022/08/22 00:03:20;;;;;;;;;;;;;;;28.80;42.48;94112.72;4965397;28;9139;-86
2022/08/22 00:05:49;;;;;;;;;;;;;;;28.80;42.11;94112.72;4887146;29;9353;-86
2022/08/22 00:08:42;;;;;;;;;;;;;;;28.81;41.94;94110.69;4887215;29;9073;-87
2022/08/22 00:11:17;;;;;;;;;;;;;;;28.81;41.65;94114.22;4885887;29;8736;-87
2022/08/22 00:14:01;;;;;;;;;;;;;;;28.81;42.23;94108.69;4887315;29;8724;-87
2022/08/22 00:16:43;;;;;;;;;;;;;;;28.79;41.92;94111.25;4871991;29;7329;-87
2022/08/22 00:19:19;;;;;;;;;;;;;;;28.80;42.03;94106.44;4886979;29;9388;-87
2022/08/22 00:21:48;;;;;;;;;;;;;;;28.81;41.51;94114.22;4887115;29;9019;-86
2022/08/22 00:24:14;;;;;;;;;;;;;;;28.81;41.95;94114.22;4886444;29;8695;-86
2022/08/22 00:27:06;;;;;;;;;;;;;;;28.80;41.57;94111.97;4885841;29;9000;-86
2022/08/22 00:29:56;;;;;;;;;;;;;;;28.78;41.69;94109.00;4887363;29;9103;-86
2022/08/22 00:32:37;;;;;;;;;;;;;;;28.78;42.33;94114.53;4870339;29;8757;-86
2022/08/22 00:35:22;;;;;;;;;;;;;;;28.77;42.20;94116.59;4887234;29;7082;-86
2022/08/22 00:38:19;;;;;;;;;;;;;;;28.78;41.92;94118.06;4886664;29;9098;-87
2022/08/22 00:41:25;;;;;;;;;;;;;;;28.78;42.31;94109.75;4886618;29;8998;-87
2022/08/22 00:44:37;;;;;;;;;;;;;;;28.76;41.69;94108.78;4904084;29;6869;-86
2022/08/22 00:47:26;;;;;;;;;;;;;;;28.77;42.12;94116.59;4888840;29;7360;-87
2022/08/22 00:50:25;;;;;;;;;;;;;;;28.77;42.14;94113.06;4889592;29;6876;-87
2022/08/22 00:52:50;;;;;;;;;;;;;;;28.76;41.97;94117.84;4888794;29;8999;-86
2022/08/22 00:55:26;;;;;;;;;;;;;;;28.77;41.48;94121.38;4888068;29;7298;-86
2022/08/22 00:58:20;;;;;;;;;;;;;;;28.76;42.24;94109.53;4889553;29;8788;-86
2022/08/22 01:00:58;;;;;;;;;;;;;;;28.76;41.45;94117.09;4888911;29;9085;-86
2022/08/22 01:03:37;;;;;;;;;;;;;;;28.76;41.84;94117.84;4888958;29;9013;-87
2022/08/22 01:06:03;;;;;;;;;;;;;;;28.74;41.51;94119.66;4888236;29;8916;-86
2022/08/22 01:08:59;;;;;;;;;;;;;;;28.75;41.55;94115.63;4904441;29;7343;-87
2022/08/22 01:11:42;;;;;;;;;;;;;;;28.74;41.74;94120.41;4887726;29;7430;-86
2022/08/22 01:14:37;;;;;;;;;;;;;;;28.72;41.74;94117.44;4904438;29;6997;-86
2022/08/22 01:17:22;;;;;;;;;;;;;;;28.71;41.70;94115.94;4888251;29;9332;-86
2022/08/22 01:20:14;;;;;;;;;;;;;;;28.69;42.11;94107.44;4887741;29;8656;-86
2022/08/22 01:23:30;;;;;;;;;;;;;;;28.70;41.58;94097.88;4964000;28;8823;-86
2022/08/22 01:26:14;;;;;;;;;;;;;;;28.69;41.90;94099.13;4908622;29;7030;-86
2022/08/22 01:29:01;;;;;;;;;;;;;;;28.68;41.82;94099.69;4923073;29;9021;-87
2022/08/22 01:31:46;;;;;;;;;;;;;;;28.67;41.95;94101.69;4922789;29;8772;-86
2022/08/22 01:34:40;;;;;;;;;;;;;;;28.66;42.15;94105.00;4923369;29;10121;-86
2022/08/22 01:37:31;;;;;;;;;;;;;;;28.65;42.22;94107.03;4922898;29;9087;-86
2022/08/22 01:40:47;;;;;;;;;;;;;;;28.65;42.29;94100.75;4906358;29;7414;-86
2022/08/22 01:43:32;;;;;;;;;;;;;;;28.65;42.07;94100.75;4923210;29;8707;-87
2022/08/22 01:46:20;;;;;;;;;;;;;;;28.64;42.22;94102.78;4923598;29;9496;-86
2022/08/22 01:49:34;;;;;;;;;;;;;;;28.62;41.68;94097.06;4923071;29;6868;-87
2022/08/22 01:52:18;;;;;;;;;;;;;;;28.63;41.76;94103.31;4817442;29;9050;-86
2022/08/22 01:55:01;;;;;;;;;;;;;;;28.61;42.08;94098.31;4817329;29;8663;-86
2022/08/22 01:57:30;;;;;;;;;;;;;;;28.60;41.95;94107.88;4833637;29;9090;-86
2022/08/22 02:00:03;;;;;;;;;;;;;;;28.62;41.58;94101.84;4818447;29;9472;-87
2022/08/22 02:02:41;;;;;;;;;;;;;;;28.62;41.91;94107.38;4842738;29;9824;-86
2022/08/22 02:05:16;;;;;;;;;;;;;;;28.62;41.75;94108.13;4869600;29;7511;-86
2022/08/22 02:08:19;;;;;;;;;;;;;;;28.61;42.07;94101.09;4870575;29;7012;-86
2022/08/22 02:11:10;;;;;;;;;;;;;;;28.60;41.60;94098.88;4870519;29;8773;-86
2022/08/22 02:13:59;;;;;;;;;;;;;;;28.59;41.92;94103.66;4869233;29;8817;-87
2022/08/22 02:16:36;;;;;;;;;;;;;;;28.57;41.68;94097.91;4855059;29;8883;-86
2022/08/22 02:19:14;;;;;;;;;;;;;;;28.58;41.73;94099.38;4870078;29;7091;-87
2022/08/22 02:22:01;;;;;;;;;;;;;;;28.54;41.44;94096.19;4869366;29;7082;-86
2022/08/22 02:25:00;;;;;;;;;;;;;;;28.59;41.32;94091.84;4869559;29;8735;-87
2022/08/22 02:27:56;;;;;;;;;;;;;;;28.58;41.66;94082.78;4868273;29;9101;-86
2022/08/22 02:30:53;;;;;;;;;;;;;;;28.57;41.69;94088.84;4963889;28;7005;-86
2022/08/22 02:33:49;;;;;;;;;;;;;;;28.56;41.95;94090.84;4966354;28;9162;-86
2022/08/22 02:36:20;;;;;;;;;;;;;;;28.56;41.55;94092.91;4966006;28;7279;-86
2022/08/22 02:38:56;;;;;;;;;;;;;;;28.54;41.75;94087.88;4950005;28;7286;-86
2022/08/22 02:41:52;;;;;;;;;;;;;;;28.54;42.27;94092.66;4950432;28;8791;-86
2022/08/22 02:44:31;;;;;;;;;;;;;;;28.52;41.82;94087.69;4950236;28;9091;-87
2022/08/22 02:47:28;;;;;;;;;;;;;;;28.53;42.25;94080.88;4950244;28;7063;-86
2022/08/22 02:50:22;;;;;;;;;;;;;;;28.52;41.79;94076.63;4966422;28;7233;-86
2022/08/22 02:53:00;;;;;;;;;;;;;;;28.53;41.89;94083.66;4956940;28;9071;-87
2022/08/22 02:55:42;;;;;;;;;;;;;;;28.52;41.82;94081.41;4966637;28;9234;-86
2022/08/22 02:58:19;;;;;;;;;;;;;;;28.52;41.50;94082.16;4949742;28;9057;-86
2022/08/22 03:01:11;;;;;;;;;;;;;;;28.52;42.05;94081.41;4949339;28;10496;-86
2022/08/22 03:03:44;;;;;;;;;;;;;;;28.52;41.56;94076.63;4965784;28;9153;-86
2022/08/22 03:06:16;;;;;;;;;;;;;;;28.49;41.67;94074.19;4965327;28;9019;-86
2022/08/22 03:09:14;;;;;;;;;;;;;;;28.51;42.00;94080.69;4965877;28;8799;-87
2022/08/22 03:11:49;;;;;;;;;;;;;;;28.49;41.92;94071.41;4965301;28;9319;-86
2022/08/22 03:14:52;;;;;;;;;;;;;;;28.48;41.27;94084.50;4965425;28;9000;-86
2022/08/22 03:17:49;;;;;;;;;;;;;;;28.51;41.64;94068.84;4948362;28;8733;-86
2022/08/22 03:20:41;;;;;;;;;;;;;;;28.47;42.19;94062.91;4964772;28;9037;-87
2022/08/22 03:23:22;;;;;;;;;;;;;;;28.47;41.75;94066.41;4965611;28;8769;-86
2022/08/22 03:26:08;;;;;;;;;;;;;;;28.46;41.70;94066.94;4964880;28;8832;-87
2022/08/22 03:28:51;;;;;;;;;;;;;;;28.44;41.57;94063.97;4965094;28;7110;-87
2022/08/22 03:31:21;;;;;;;;;;;;;;;28.46;41.68;94072.47;4950143;28;9099;-86
2022/08/22 03:34:25;;;;;;;;;;;;;;;28.46;41.95;94069.72;4949527;28;9118;-86
2022/08/22 03:37:11;;;;;;;;;;;;;;;28.46;41.92;94064.19;4904353;29;7238;-86
2022/08/22 03:39:53;;;;;;;;;;;;;;;28.45;41.34;94060.66;4903489;29;7559;-86
2022/08/22 03:42:31;;;;;;;;;;;;;;;28.44;41.79;94064.72;4904030;29;9028;-86
2022/08/22 03:45:28;;;;;;;;;;;;;;;28.43;41.83;94065.28;4888201;29;8750;-86
2022/08/22 03:48:25;;;;;;;;;;;;;;;28.43;41.92;94062.50;4886319;29;8419;-86
2022/08/22 03:50:53;;;;;;;;;;;;;;;28.39;41.99;94062.81;4870401;29;9036;-86
2022/08/22 03:54:00;;;;;;;;;;;;;;;28.40;41.85;94069.84;4885616;29;8102;-86
2022/08/22 03:57:19;;;;;;;;;;;;;;;28.39;41.77;94057.28;4870926;29;9404;-87
2022/08/22 04:00:17;;;;;;;;;;;;;;;28.39;41.75;94054.53;4794380;29;6927;-86
2022/08/22 04:03:13;;;;;;;;;;;;;;;28.39;41.60;94054.53;4792583;29;7264;-86
2022/08/22 04:06:03;;;;;;;;;;;;;;;28.40;41.85;94052.50;4794844;29;8775;-86
2022/08/22 04:09:02;;;;;;;;;;;;;;;28.38;41.94;94058.59;4794608;29;8781;-85
2022/08/22 04:12:09;;;;;;;;;;;;;;;28.40;42.08;94063.56;4820506;29;9094;-86
2022/08/22 04:15:00;;;;;;;;;;;;;;;28.39;41.62;94060.06;4843641;29;8774;-85
2022/08/22 04:17:50;;;;;;;;;;;;;;;28.38;41.64;94059.31;4844757;29;9070;-86
2022/08/22 04:20:24;;;;;;;;;;;;;;;28.38;41.52;94055.81;4844909;29;8619;-86
2022/08/22 04:22:53;;;;;;;;;;;;;;;28.36;41.66;94056.34;4843333;29;7570;-87
2022/08/22 04:25:30;;;;;;;;;;;;;;;28.38;41.60;94060.59;4867792;29;9022;-86
2022/08/22 04:28:19;;;;;;;;;;;;;;;28.36;41.78;94063.91;4883533;29;9069;-87
2022/08/22 04:30:50;;;;;;;;;;;;;;;28.36;42.01;94056.34;4877583;29;9034;-87
2022/08/22 04:33:22;;;;;;;;;;;;;;;28.36;41.45;94064.63;4879064;29;7490;-86
2022/08/22 04:36:13;;;;;;;;;;;;;;;28.36;41.69;94061.88;4963735;28;7961;-87
2022/08/22 04:38:46;;;;;;;;;;;;;;;28.37;41.72;94059.84;4984170;28;8398;-87
2022/08/22 04:41:27;;;;;;;;;;;;;;;28.36;41.74;94061.88;4983908;28;8834;-87
2022/08/22 04:44:12;;;;;;;;;;;;;;;28.34;41.60;94067.19;4969864;28;10161;-88
2022/08/22 04:47:07;;;;;;;;;;;;;;;28.34;41.64;94071.97;4971696;28;8667;-88
2022/08/22 04:49:46;;;;;;;;;;;;;;;28.31;41.33;94070.31;4877548;29;8999;-87
2022/08/22 04:52:23;;;;;;;;;;;;;;;28.31;41.89;94073.06;4879148;29;7122;-87
2022/08/22 04:55:37;;;;;;;;;;;;;;;28.30;41.61;94071.56;4879082;29;8746;-87
2022/08/22 04:58:38;;;;;;;;;;;;;;;28.29;41.89;94075.63;4891921;29;9114;-86
2022/08/22 05:01:09;;;;;;;;;;;;;;;28.29;41.51;94083.94;4877344;29;7042;-87
2022/08/22 05:03:53;;;;;;;;;;;;;;;28.27;41.52;94086.50;4895765;29;7266;-86
2022/08/22 05:06:26;;;;;;;;;;;;;;;28.28;41.96;94079.66;4898379;29;9401;-86
2022/08/22 05:08:59;;;;;;;;;;;;;;;28.28;41.67;94082.44;4888977;29;8741;-87
2022/08/22 05:11:32;;;;;;;;;;;;;;;28.28;41.60;94090.72;4889304;29;8753;-86
2022/08/22 05:14:08;;;;;;;;;;;;;;;28.28;41.96;94085.19;4887762;29;10126;-87
2022/08/22 05:16:41;;;;;;;;;;;;;;;28.26;41.61;94087.75;4898695;29;8699;-87
2022/08/22 05:19:18;;;;;;;;;;;;;;;28.25;41.76;94091.81;4897939;29;9118;-87
2022/08/22 05:21:50;;;;;;;;;;;;;;;28.27;41.49;94097.56;4899460;29;7002;-88
2022/08/22 05:24:25;;;;;;;;;;;;;;;28.24;41.57;94093.09;4882096;29;7041;-88
2022/08/22 05:27:00;;;;;;;;;;;;;;;28.25;41.53;94092.53;4935083;28;9248;-87
2022/08/22 05:29:33;;;;;;;;;;;;;;;28.30;41.35;94096.47;4969899;28;8598;-87
2022/08/22 05:32:08;;;;;;;;;;;;;;;28.30;41.13;94099.97;4959927;28;8699;-87
2022/08/22 05:34:40;;;;;;;;;;;;;;;28.27;41.29;94089.97;4962834;28;9095;-87
2022/08/22 05:37:33;;;;;;;;;;;;;;;28.29;41.25;94097.75;4963065;28;7261;-87
2022/08/22 05:40:00;;;;;;;;;;;;;;;28.28;41.24;94096.25;4960402;28;8709;-87
2022/08/22 05:42:38;;;;;;;;;;;;;;;28.26;41.47;94096.06;4959532;28;7447;-87
2022/08/22 05:45:07;;;;;;;;;;;;;;;28.24;41.12;94096.59;4980502;28;8722;-87
2022/08/22 05:47:47;;;;;;;;;;;;;;;28.25;41.28;94092.53;4963408;28;6865;-87
2022/08/22 05:50:34;;;;;;;;;;;;;;;28.23;41.24;94094.38;4980456;28;8764;-88
2022/08/22 05:53:16;;;;;;;;;;;;;;;28.24;40.90;94087.56;4982971;28;9034;-88
2022/08/22 05:56:00;;;;;;;;;;;;;;;28.24;40.96;94095.84;4967253;28;9056;-88
2022/08/22 05:58:54;;;;;;;;;;;;;;;28.22;40.71;94092.88;4968406;28;7303;-88
2022/08/22 06:01:33;;;;;;;;;;;;;;;28.23;40.65;94094.38;4985389;28;8663;-88
2022/08/22 06:04:35;;;;;;;;;;;;;;;28.22;41.27;94103.94;4968864;28;9387;-87
2022/08/22 06:07:30;;;;;;;;;;;;;;;28.22;40.85;94106.72;4927136;29;8834;-88
2022/08/22 06:10:46;;;;;;;;;;;;;;;28.23;40.33;94105.44;4909752;29;9009;-87
2022/08/22 06:13:31;;;;;;;;;;;;;;;28.24;40.15;94109.69;4893158;29;8839;-88
2022/08/22 06:16:28;;;;;;;;;;;;;;;28.23;40.27;94111.69;4894143;29;9099;-88
2022/08/22 06:18:59;;;;;;;;;;;;;;;28.22;40.21;94106.72;4861361;29;8650;-88
2022/08/22 06:21:36;;;;;;;;;;;;;;;28.22;40.01;94112.25;4846591;29;7584;-88
2022/08/22 06:24:10;;;;;;;;;;;;;;;28.23;39.92;94116.50;4854539;29;9207;-88
2022/08/22 06:26:44;;;;;;;;;;;;;;;28.17;39.71;94110.31;4847559;29;9010;-88
2022/08/22 06:29:27;;;;;;;;;;;;;;;28.18;39.91;94117.34;4855584;29;6887;-88
2022/08/22 06:31:56;;;;;;;;;;;;;;;28.21;39.78;94119.03;4849126;29;7333;-87
2022/08/22 06:34:35;;;;;;;;;;;;;;;28.20;39.51;94123.09;4864114;29;9032;-87
2022/08/22 06:37:12;;;;;;;;;;;;;;;28.20;39.36;94128.63;4856524;29;9079;-88
2022/08/22 06:39:44;;;;;;;;;;;;;;;28.16;39.43;94122.69;4858442;29;9255;-87
2022/08/22 06:42:15;;;;;;;;;;;;;;;28.16;39.63;94125.44;4860947;29;9027;-88
2022/08/22 06:45:02;;;;;;;;;;;;;;;28.16;39.56;94125.44;4845902;29;9346;-88
2022/08/22 06:47:35;;;;;;;;;;;;;;;28.13;39.66;94124.50;4859376;29;8759;-88
2022/08/22 06:50:10;;;;;;;;;;;;;;;28.11;39.71;94124.28;4880220;29;8587;-88
2022/08/22 06:52:57;;;;;;;;;;;;;;;28.11;39.81;94127.03;4900140;29;7266;-87
2022/08/22 06:55:27;;;;;;;;;;;;;;;28.09;39.59;94120.56;4933545;28;7355;-87
2022/08/22 06:58:10;;;;;;;;;;;;;;;28.08;38.96;94119.06;4990123;28;7277;-87
2022/08/22 07:00:41;;;;;;;;;;;;;;;28.07;39.40;94114.81;4990553;28;7238;-88
2022/08/22 07:03:41;;;;;;;;;;;;;;;28.06;39.45;94113.31;4972264;28;8786;-87
2022/08/22 07:06:14;;;;;;;;;;;;;;;28.06;39.53;94129.91;4989377;28;10243;-87
2022/08/22 07:08:53;;;;;;;;;;;;;;;28.04;39.55;94138.00;4989321;28;9275;-88
2022/08/22 07:11:37;;;;;;;;;;;;;;;28.03;39.28;94137.28;4988369;28;9080;-88
2022/08/22 07:14:12;;;;;;;;;;;;;;;28.04;39.97;94143.53;4967677;28;6941;-87
2022/08/22 07:16:43;;;;;;;;;;;;;;;28.06;39.75;94133.41;4960277;28;9053;-85
2022/08/22 07:19:25;;;;;;;;;;;;;;;28.03;39.75;94136.53;4964623;28;9171;-86
2022/08/22 07:21:55;;;;;;;;;;;;;;;28.04;39.99;94144.28;4962579;28;7230;-86
2022/08/22 07:24:27;;;;;;;;;;;;;;;28.00;40.15;94137.56;4960933;28;7196;-87
2022/08/22 07:27:28;;;;;;;;;;;;;;;28.04;39.76;94135.22;4981649;28;8596;-86
2022/08/22 07:30:05;;;;;;;;;;;;;;;28.06;39.79;94140.97;4978294;28;7277;-87
2022/08/22 07:32:58;;;;;;;;;;;;;;;28.05;39.88;94139.50;4973453;23;8663;-64
2022/08/22 07:35:44;;;;;;;;;;;;;;;28.05;39.97;94139.50;4970294;28;7190;-62
2022/08/22 07:38:41;;;;;;;;;;;;;;;28.04;40.45;94147.03;4985493;28;7258;-62
2022/08/22 07:41:18;;;;;;;;;;;;;;;28.06;40.21;94154.78;4968861;28;7312;-62
2022/08/22 07:44:11;;;;;;;;;;;;;;;28.05;40.14;94139.50;4965324;28;9325;-62
2022/08/22 07:46:52;;;;;;;;;;;;;;;28.06;40.18;94140.97;4972036;28;7032;-62
2022/08/22 07:49:39;;;;;;;;;;;;;;;28.07;40.41;94148.00;4984217;28;9511;-62
2022/08/22 07:52:12;;;;;;;;;;;;;;;28.05;40.18;94143.00;4970657;28;7588;-62
2022/08/22 07:54:50;;;;;;;;;;;;;;;28.05;40.26;94145.78;4983182;28;9398;-62
2022/08/22 07:58:01;;;;;;;;;;;;;;;28.08;40.37;94143.94;4981841;28;6990;-62
2022/08/22 08:00:44;;;;;;;;;;;;;;;28.08;40.42;94132.88;4956182;28;9078;-61
2022/08/22 08:03:24;;;;;;;;;;;;;;;28.07;40.43;94140.44;4937402;28;9394;-62
2022/08/22 08:05:52;;;;;;;;;;;;;;;28.09;40.16;94139.91;4940712;28;7366;-63
2022/08/22 08:08:43;;;;;;;;;;;;;;;28.08;40.50;94133.63;4939228;28;8383;-62
2022/08/22 08:11:42;;;;;;;;;;;;;;;28.08;40.28;94128.09;4954948;28;8639;-63
2022/08/22 08:14:23;;;;;;;;;;;;;;;28.09;40.77;94134.38;4934309;28;7496;-63
2022/08/22 08:17:24;;;;;;;;;;;;;;;28.09;40.35;94134.38;4944296;28;7323;-63
2022/08/22 08:20:06;;;;;;;;;;;;;;;28.09;40.34;94134.38;4956518;28;7275;-63
2022/08/22 08:22:46;;;;;;;;;;;;;;;28.09;40.34;94137.16;4936087;28;7201;-63
2022/08/22 08:25:26;;;;;;;;;;;;;;;28.08;40.35;94141.19;4937650;28;9162;-62
2022/08/22 08:31:00;;;;;;;;;;;;;;;28.11;40.66;94146.41;4917788;29;7794;-62
2022/08/22 08:33:30;;;;;;;;;;;;;;;28.09;40.38;94143.44;4922434;29;7367;-63
2022/08/22 08:36:19;;;;;;;;;;;;;;;28.10;40.44;94135.88;4931423;29;7332;-62
2022/08/22 08:39:20;;;;;;;;;;;;;;;28.11;40.54;94143.63;4930252;29;7629;-62
2022/08/22 08:42:04;;;;;;;;;;;;;;;28.11;40.68;94138.09;4931963;29;7430;-62
2022/08/22 08:44:50;;;;;;;;;;;;;;;28.13;40.57;94134.78;4927104;29;7874;-62
2022/08/22 08:47:53;;;;;;;;;;;;;;;28.13;40.54;94132.03;4931824;29;7132;-62
2022/08/22 08:50:56;;;;;;;;;;;;;;;28.13;40.52;94129.25;4929145;28;7491;-62
2022/08/22 08:53:56;;;;;;;;;;;;;;;28.13;40.76;94126.50;4930732;29;7170;-62
2022/08/22 08:56:49;;;;;;;;;;;;;;;28.13;40.20;94130.00;4926151;29;7944;-62
2022/08/22 08:59:29;;;;;;;;;;;;;;;28.13;40.49;94129.25;4931485;29;9408;-62
2022/08/22 09:02:19;;;;;;;;;;;;;;;28.14;40.70;94133.53;4935767;28;6999;-62
2022/08/22 09:05:37;;;;;;;;;;;;;;;28.15;40.38;94130.22;4935684;29;10299;-63
2022/08/22 09:08:37;;;;;;;;;;;;;;;28.17;40.60;94135.22;4957749;28;9072;-62
2022/08/22 09:11:31;;;;;;;;;;;;;;;28.18;40.38;94136.72;4966853;28;9505;-62
2022/08/22 09:14:46;;;;;;;;;;;;;;;28.18;40.41;94131.19;4964795;28;7290;-62
2022/08/22 09:17:45;;;;;;;;;;;;;;;28.20;40.59;94142.44;4933903;28;7120;-62
2022/08/22 09:20:57;;;;;;;;;;;;;;;28.21;40.49;94130.09;4943429;28;8848;-63
2022/08/22 09:24:00;;;;;;;;;;;;;;;28.20;40.53;94121.06;4934528;29;7576;-62
2022/08/22 09:26:47;;;;;;;;;;;;;;;28.21;40.66;94127.31;4945480;28;7405;-62
2022/08/22 09:29:51;;;;;;;;;;;;;;;28.20;40.30;94128.63;4936401;28;7230;-61
2022/08/22 09:32:45;;;;;;;;;;;;;;;28.22;40.32;94126.06;4936346;28;9331;-62
2022/08/22 09:35:38;;;;;;;;;;;;;;;28.21;40.52;94124.56;4948180;28;9775;-61
2022/08/22 09:38:25;;;;;;;;;;;;;;;28.23;40.44;94122.03;4930966;28;7236;-62
2022/08/22 09:41:11;;;;;;;;;;;;;;;28.24;40.48;94123.50;4932572;28;8841;-62
2022/08/22 09:44:00;;;;;;;;;;;;;;;28.24;40.35;94115.97;4949712;28;7704;-62
2022/08/22 09:46:37;;;;;;;;;;;;;;;28.22;40.70;94118.53;4935876;28;9434;-62
2022/08/22 09:49:44;;;;;;;;;;;;;;;28.23;40.48;94122.03;4933719;28;7290;-62
2022/08/22 09:52:52;;;;;;;;;;;;;;;28.25;40.42;94116.72;4911412;29;7034;-62
2022/08/22 09:55:44;;;;;;;;;;;;;;;28.25;40.42;94116.72;4944256;28;7723;-63
2022/08/22 09:58:43;;;;;;;;;;;;;;;28.24;40.26;94104.91;4943963;28;8074;-63
2022/08/22 10:01:47;;;;;;;;;;;;;;;28.25;40.47;94100.84;4945330;28;9374;-63
2022/08/22 10:04:41;;;;;;;;;;;;;;;28.26;40.23;94105.09;4943960;28;9393;-62
2022/08/22 10:07:54;;;;;;;;;;;;;;;28.28;40.28;94115.63;4942909;28;7429;-62
2022/08/22 10:10:58;;;;;;;;;;;;;;;28.29;40.32;94103.28;4906757;29;7675;-62
2022/08/22 10:13:54;;;;;;;;;;;;;;;28.29;40.20;94112.34;4904075;29;7290;-63
2022/08/22 10:16:43;;;;;;;;;;;;;;;28.32;40.19;94105.72;4909168;29;7503;-62
2022/08/22 10:19:27;;;;;;;;;;;;;;;28.32;39.77;94108.50;4886442;29;7190;-63
2022/08/22 10:22:16;;;;;;;;;;;;;;;28.35;39.94;94109.44;4899155;29;8943;-62
2022/08/22 10:25:18;;;;;;;;;;;;;;;28.37;40.22;94104.13;4912273;28;8935;-62
2022/08/22 10:28:38;;;;;;;;;;;;;;;28.38;40.12;94113.91;4929145;29;7041;-62
2022/08/22 10:31:22;;;;;;;;;;;;;;;28.37;40.09;94106.88;4839417;29;7640;-61
2022/08/22 10:34:03;;;;;;;;;;;;;;;28.36;39.83;94105.41;4846810;29;7322;-61
2022/08/22 10:36:44;;;;;;;;;;;;;;;28.37;40.15;94112.41;4836822;29;9576;-62
2022/08/22 10:39:21;;;;;;;;;;;;;;;28.36;40.51;94113.72;4856835;29;7255;-62
2022/08/22 10:41:58;;;;;;;;;;;;;;;28.37;40.23;94112.41;4841288;29;7257;-62
2022/08/22 10:44:53;;;;;;;;;;;;;;;28.40;40.05;94114.13;4857657;29;7908;-62
2022/08/22 10:47:37;;;;;;;;;;;;;;;28.42;39.98;94111.56;4880767;29;7222;-62
2022/08/22 10:50:22;;;;;;;;;;;;;;;28.44;39.86;94122.06;4898018;29;8928;-61
2022/08/22 10:53:29;;;;;;;;;;;;;;;28.43;40.21;94118.56;4910136;29;7586;-62
2022/08/22 10:56:09;;;;;;;;;;;;;;;28.45;40.01;94123.56;4912203;29;7225;-62
2022/08/22 11:02:43;;;;;;;;;;;;;;;28.43;39.79;94129.63;4909346;29;7270;-62
2022/08/22 11:05:30;;;;;;;;;;;;;;;28.45;39.96;94123.56;4897779;29;7197;-62
2022/08/22 11:08:15;;;;;;;;;;;;;;;28.46;39.87;94127.81;4968338;28;9387;-62
2022/08/22 11:11:11;;;;;;;;;;;;;;;28.44;40.06;94120.06;4983515;28;7489;-62
2022/08/22 11:14:12;;;;;;;;;;;;;;;28.45;39.79;94115.28;4968226;28;7244;-62
2022/08/22 11:16:45;;;;;;;;;;;;;;;28.42;40.54;94121.88;4967736;28;6939;-62
2022/08/22 11:19:14;;;;;;;;;;;;;;;28.45;39.37;94115.28;4964589;28;7228;-62
2022/08/22 11:22:05;;;;;;;;;;;;;;;28.45;39.39;94113.22;4982742;28;7273;-63
2022/08/22 11:25:09;;;;;;;;;;;;;;;28.47;39.50;94116.22;4983348;28;7638;-63
2022/08/22 11:27:46;;;;;;;;;;;;;;;28.48;39.64;94114.94;4963710;28;7196;-63
2022/08/22 11:31:05;;;;;;;;;;;;;;;28.47;39.64;94105.13;4966358;28;8730;-63
2022/08/22 11:34:05;;;;;;;;;;;;;;;28.46;39.61;94111.97;4927830;28;7419;-62
2022/08/22 11:36:54;;;;;;;;;;;;;;;28.47;39.41;94102.38;4883870;29;7239;-62
2022/08/22 11:39:32;;;;;;;;;;;;;;;28.47;39.24;94096.84;4897324;29;6983;-63
2022/08/22 11:42:13;;;;;;;;;;;;;;;28.50;39.26;94098.53;4894793;29;7410;-62
2022/08/22 11:45:15;;;;;;;;;;;;;;;28.50;39.73;94101.31;4885687;29;7165;-63
2022/08/22 11:48:01;;;;;;;;;;;;;;;28.51;39.79;94091.00;4891225;29;9406;-63
2022/08/22 11:50:38;;;;;;;;;;;;;;;28.51;39.47;94094.50;4896662;29;10329;-63
2022/08/22 11:53:12;;;;;;;;;;;;;;;28.53;39.29;94089.19;4856809;29;7084;-63
2022/08/22 11:56:09;;;;;;;;;;;;;;;28.55;39.63;94088.63;4902057;29;7096;-63
2022/08/22 12:02:24;;;;;;;;;;;;;;;28.56;39.70;94092.91;4898325;29;7298;-63
2022/08/22 12:05:08;;;;;;;;;;;;;;;28.56;39.65;94087.38;4844202;29;7165;-63
2022/08/22 12:07:49;;;;;;;;;;;;;;;28.55;39.36;94086.63;4854457;29;7154;-63
2022/08/22 12:10:37;;;;;;;;;;;;;;;28.54;39.12;94087.88;4842453;29;8649;-63
2022/08/22 12:13:36;;;;;;;;;;;;;;;28.56;39.29;94084.59;4879760;29;9592;-63
2022/08/22 12:16:44;;;;;;;;;;;;;;;28.60;39.17;94088.53;4895669;29;8426;-63
2022/08/22 12:19:49;;;;;;;;;;;;;;;28.62;39.14;94086.00;4895733;29;7155;-63
2022/08/22 12:22:54;;;;;;;;;;;;;;;28.61;39.20;94073.41;4910141;29;10283;-63
2022/08/22 12:26:04;;;;;;;;;;;;;;;28.64;39.24;94072.34;4896262;29;10724;-63
2022/08/22 12:29:08;;;;;;;;;;;;;;;28.67;39.42;94073.28;4910676;29;9587;-64
2022/08/22 12:32:04;;;;;;;;;;;;;;;28.68;39.43;94072.75;4896326;29;7266;-63
2022/08/22 12:35:09;;;;;;;;;;;;;;;28.68;39.47;94075.53;4914774;29;7186;-63
2022/08/22 12:37:55;;;;;;;;;;;;;;;28.70;39.76;94066.69;4896004;29;6854;-63
2022/08/22 12:40:48;;;;;;;;;;;;;;;28.73;39.19;94071.16;4930272;28;7421;-63
2022/08/22 12:43:22;;;;;;;;;;;;;;;28.72;39.35;94064.84;4969855;28;7250;-62
2022/08/22 12:46:15;;;;;;;;;;;;;;;28.73;39.40;94058.03;4967613;28;7156;-63
2022/08/22 12:49:11;;;;;;;;;;;;;;;28.75;39.62;94066.53;4968979;28;7032;-63
2022/08/22 12:52:06;;;;;;;;;;;;;;;28.78;39.05;94065.47;4981350;28;7847;-62
2022/08/22 12:55:01;;;;;;;;;;;;;;;28.76;39.50;94062.50;4966753;28;9448;-62
2022/08/22 12:57:27;;;;;;;;;;;;;;;28.79;39.91;94055.88;4929249;29;7578;-63
2022/08/22 13:00:22;;;;;;;;;;;;;;;28.80;39.44;94057.34;4926868;29;7565;-63
2022/08/22 13:03:23;;;;;;;;;;;;;;;28.83;39.27;94058.31;4925293;29;7256;-63
2022/08/22 13:05:56;;;;;;;;;;;;;;;28.85;39.27;94055.75;4929122;29;7426;-62
2022/08/22 13:08:44;;;;;;;;;;;;;;;28.86;39.66;94046.88;4934572;29;7231;-62
2022/08/22 13:11:14;;;;;;;;;;;;;;;28.88;39.81;94040.81;4928448;29;7669;-62
2022/08/22 13:13:51;;;;;;;;;;;;;;;28.88;40.42;94049.84;4930152;29;10587;-63
2022/08/22 13:16:38;;;;;;;;;;;;;;;28.90;39.98;94044.53;4926472;29;7769;-62
2022/08/22 13:19:18;;;;;;;;;;;;;;;28.90;39.35;94039.00;4912816;29;9742;-62
2022/08/22 13:22:08;;;;;;;;;;;;;;;28.93;39.98;94042.69;4914226;29;9444;-63
2022/08/22 13:25:23;;;;;;;;;;;;;;;28.94;39.31;94042.19;4929407;29;7382;-64
2022/08/22 13:27:55;;;;;;;;;;;;;;;28.96;39.50;94036.84;4838303;29;8550;-63
2022/08/22 13:30:30;;;;;;;;;;;;;;;28.98;39.30;94025.22;4840480;29;7439;-63
2022/08/22 13:33:07;;;;;;;;;;;;;;;28.99;39.38;94027.44;4852003;29;7233;-63
2022/08/22 13:35:43;;;;;;;;;;;;;;;29.00;39.77;94020.63;4888258;29;7180;-64
2022/08/22 13:38:19;;;;;;;;;;;;;;;29.02;39.59;94017.31;4877014;29;7065;-63
2022/08/22 13:40:50;;;;;;;;;;;;;;;29.04;39.83;94025.81;4890902;29;7401;-64
2022/08/22 13:43:36;;;;;;;;;;;;;;;29.05;39.69;94022.50;4892745;29;8140;-63
2022/08/22 13:46:11;;;;;;;;;;;;;;;29.06;39.10;94034.31;4892481;29;9158;-64
2022/08/22 13:48:54;;;;;;;;;;;;;;;29.08;39.50;94026.94;4884801;29;7707;-63
2022/08/22 13:51:57;;;;;;;;;;;;;;;29.08;39.20;94026.94;4880853;29;9295;-63
2022/08/22 13:54:42;;;;;;;;;;;;;;;29.10;39.77;94032.69;4879930;29;7633;-63
2022/08/22 13:57:37;;;;;;;;;;;;;;;29.16;39.32;94026.25;4876601;29;7211;-63
2022/08/22 14:00:41;;;;;;;;;;;;;;;29.19;39.54;94030.75;4843784;29;7498;-63
2022/08/22 14:03:21;;;;;;;;;;;;;;;29.21;39.89;94034.44;4844660;29;7048;-63
2022/08/22 14:05:53;;;;;;;;;;;;;;;29.23;39.45;94031.16;4911136;29;7471;-63
2022/08/22 14:08:34;;;;;;;;;;;;;;;29.24;39.46;94025.06;4908589;29;9334;-63
2022/08/22 14:11:11;;;;;;;;;;;;;;;29.25;39.18;94023.78;4926745;29;7666;-63
2022/08/22 14:13:58;;;;;;;;;;;;;;;29.28;39.40;94033.00;4921694;29;9389;-63
2022/08/22 14:16:33;;;;;;;;;;;;;;;29.31;39.78;94035.47;4925803;29;7237;-63
2022/08/22 14:19:13;;;;;;;;;;;;;;;29.31;39.31;94032.69;4922991;29;7919;-63
2022/08/22 14:21:57;;;;;;;;;;;;;;;29.33;39.12;94034.91;4921953;29;7019;-63
2022/08/22 14:24:41;;;;;;;;;;;;;;;29.35;39.28;94029.56;4914199;29;7197;-63
2022/08/22 14:27:38;;;;;;;;;;;;;;;29.38;38.82;94034.03;4926898;29;7562;-63
2022/08/22 14:30:37;;;;;;;;;;;;;;;29.41;38.84;94013.53;4930926;28;7437;-63
2022/08/22 14:33:21;;;;;;;;;;;;;;;29.42;39.27;94024.09;4912514;29;6993;-63
2022/08/22 14:36:00;;;;;;;;;;;;;;;29.44;39.56;94021.50;4916949;28;7319;-63
2022/08/22 14:38:39;;;;;;;;;;;;;;;29.45;39.25;94016.72;4966641;28;7289;-63
2022/08/22 14:41:23;;;;;;;;;;;;;;;29.48;39.52;94021.88;4983680;28;8054;-63
2022/08/22 14:43:55;;;;;;;;;;;;;;;29.50;39.43;94015.78;4964663;28;7256;-63
2022/08/22 14:47:03;;;;;;;;;;;;;;;29.53;39.38;94025.78;4967330;28;7556;-63
2022/08/22 14:49:50;;;;;;;;;;;;;;;29.55;39.51;94031.53;4948259;28;7624;-62